Time;durP1;ratioP1;P1;durP2;ratioP2;P2;SDS_P1;SDS_P2;PMS_P1;PMS_P2;Temp;Humidity;BMP_temperature;BMP_pressure;BME280_temperature;BME280_humidity;BME280_pressure;Samples;Min_cycle;Max_cycle;Signal;HPM_P1;HPM_P2
2022/03/01 00:02:01;;;;;;;4.78;2.17;;;0.20;99.70;;;;;;5090658;28;20207;-71
2022/03/01 00:04:27;;;;;;;3.17;1.70;;;0.20;99.60;;;;;;5090567;28;20223;-71
2022/03/01 00:06:53;;;;;;;3.60;1.98;;;0.10;99.70;;;;;;5090636;28;20194;-71
2022/03/01 00:09:18;;;;;;;5.57;2.70;;;0.10;99.70;;;;;;5089427;28;20164;-71
2022/03/01 00:11:44;;;;;;;2.72;1.92;;;0.10;99.80;;;;;;5090490;28;20283;-71
2022/03/01 00:14:10;;;;;;;3.25;1.50;;;0.00;99.90;;;;;;5089255;28;20195;-70
2022/03/01 00:16:36;;;;;;;5.35;2.90;;;0.00;99.90;;;;;;5090600;28;20635;-70
2022/03/01 00:19:02;;;;;;;2.00;1.58;;;-0.10;99.90;;;;;;5090446;28;20160;-70
2022/03/01 00:21:28;;;;;;;4.07;2.28;;;0.00;99.90;;;;;;5090522;28;20200;-71
2022/03/01 00:23:56;;;;;;;4.07;1.98;;;0.10;99.80;;;;;;5090407;28;20187;-70
2022/03/01 00:26:22;;;;;;;4.50;3.08;;;0.10;99.90;;;;;;5088983;28;20214;-71
2022/03/01 00:28:48;;;;;;;2.50;1.70;;;0.10;99.90;;;;;;5090057;28;20526;-71
2022/03/01 00:31:15;;;;;;;4.80;2.40;;;0.00;99.90;;;;;;5089997;28;20160;-71
2022/03/01 00:33:41;;;;;;;3.97;2.15;;;0.00;99.90;;;;;;5076097;28;20190;-71
2022/03/01 00:36:07;;;;;;;5.32;2.10;;;0.00;99.90;;;;;;5070132;28;20166;-70
2022/03/01 00:38:33;;;;;;;4.45;2.20;;;0.00;99.90;;;;;;5070123;28;20648;-70
2022/03/01 00:41:00;;;;;;;4.35;1.65;;;-0.10;99.90;;;;;;5084170;28;20183;-71
2022/03/01 00:43:25;;;;;;;3.88;2.17;;;-0.20;99.90;;;;;;5089913;28;20727;-70
2022/03/01 00:45:53;;;;;;;3.10;1.50;;;-0.20;99.90;;;;;;5089991;28;20191;-71
2022/03/01 00:48:20;;;;;;;2.58;2.00;;;-0.20;99.90;;;;;;5088481;28;20195;-70
2022/03/01 00:50:46;;;;;;;4.18;1.63;;;-0.30;99.90;;;;;;5089770;28;20148;-70
2022/03/01 00:53:12;;;;;;;2.35;1.50;;;-0.40;99.90;;;;;;5089473;28;20603;-71
2022/03/01 00:55:39;;;;;;;5.55;2.15;;;-0.60;99.90;;;;;;5089810;28;20173;-71
2022/03/01 00:58:05;;;;;;;3.90;1.85;;;-0.70;99.90;;;;;;5089721;28;20187;-70
2022/03/01 01:00:32;;;;;;;3.05;1.60;;;-0.90;99.90;;;;;;5089751;28;20244;-70
2022/03/01 01:02:58;;;;;;;3.80;1.95;;;-1.00;99.90;;;;;;5088062;28;20224;-70
2022/03/01 01:05:24;;;;;;;3.67;2.08;;;-1.00;99.90;;;;;;5089627;28;20204;-70
2022/03/01 01:07:51;;;;;;;5.25;2.35;;;-0.70;99.90;;;;;;5089520;28;20206;-70
2022/03/01 01:10:19;;;;;;;5.00;2.20;;;-0.50;99.90;;;;;;5089616;28;20522;-70
2022/03/01 01:12:45;;;;;;;4.35;2.08;;;-0.40;99.90;;;;;;5089560;28;20181;-70
2022/03/01 01:15:13;;;;;;;7.18;1.92;;;-0.30;99.90;;;;;;5089530;28;20188;-70
2022/03/01 01:17:39;;;;;;;2.22;1.80;;;-0.30;99.90;;;;;;5089542;28;20199;-71
2022/03/01 01:20:07;;;;;;;6.82;2.53;;;-0.30;99.90;;;;;;5089567;28;20160;-70
2022/03/01 01:22:42;;;;;;;5.65;1.98;;;-0.30;99.90;;;;;;5089454;28;20224;-71
2022/03/01 01:25:27;;;;;;;3.80;1.48;;;-0.20;99.90;;;;;;5089313;28;20181;-70
2022/03/01 01:27:56;;;;;;;2.78;1.50;;;-0.30;99.90;;;;;;5089256;28;20244;-70
2022/03/01 01:30:26;;;;;;;4.13;2.00;;;-0.30;99.90;;;;;;5089450;28;20230;-70
2022/03/01 01:32:52;;;;;;;2.33;1.75;;;-0.30;99.90;;;;;;5089388;28;20186;-70
2022/03/01 01:35:21;;;;;;;5.82;2.13;;;-0.20;99.90;;;;;;5089235;28;20156;-70
2022/03/01 01:37:48;;;;;;;6.03;2.50;;;-0.10;99.90;;;;;;5089232;28;20184;-70
2022/03/01 01:40:17;;;;;;;5.30;1.98;;;-0.10;99.90;;;;;;5089024;28;20176;-70
2022/03/01 01:42:44;;;;;;;5.53;2.22;;;-0.10;99.90;;;;;;5088681;28;20160;-70
2022/03/01 01:45:11;;;;;;;11.75;2.45;;;-0.10;99.90;;;;;;5087783;28;20164;-70
2022/03/01 01:47:37;;;;;;;4.70;2.30;;;-0.10;99.90;;;;;;5087727;28;20291;-70
2022/03/01 01:50:04;;;;;;;6.07;2.65;;;-0.20;99.90;;;;;;5089136;28;20159;-70
2022/03/01 01:52:30;;;;;;;4.10;2.15;;;-0.20;99.90;;;;;;5089075;28;20171;-70
2022/03/01 01:54:56;;;;;;;5.82;2.13;;;-0.20;99.90;;;;;;5089061;28;20164;-70
2022/03/01 01:57:24;;;;;;;4.55;1.95;;;-0.20;99.90;;;;;;5089114;28;20221;-70
2022/03/01 01:59:51;;;;;;;4.97;1.40;;;-0.20;99.90;;;;;;5089135;28;20159;-70
2022/03/01 02:02:20;;;;;;;4.15;2.10;;;-0.20;99.90;;;;;;5088914;28;20156;-70
2022/03/01 02:04:47;;;;;;;3.15;1.85;;;-0.20;99.90;;;;;;5087600;28;20191;-70
2022/03/01 02:07:14;;;;;;;4.18;2.13;;;-0.30;99.90;;;;;;5088831;28;20203;-70
2022/03/01 02:09:40;;;;;;;3.75;1.98;;;-0.40;99.90;;;;;;5081308;28;20177;-70
2022/03/01 02:12:07;;;;;;;4.65;1.73;;;-0.50;99.90;;;;;;5088482;28;20179;-70
2022/03/01 02:14:35;;;;;;;3.30;1.90;;;-0.50;99.90;;;;;;5069828;28;20642;-70
2022/03/01 02:17:07;;;;;;;2.80;1.77;;;-0.60;99.90;;;;;;5077935;28;20192;-70
2022/03/01 02:19:33;;;;;;;8.40;2.10;;;-0.60;99.90;;;;;;5067286;28;20192;-70
2022/03/01 02:21:59;;;;;;;3.85;2.00;;;-0.60;99.90;;;;;;5068641;28;20161;-70
2022/03/01 02:24:27;;;;;;;4.80;2.05;;;-0.60;99.90;;;;;;5068107;28;20184;-70
2022/03/01 02:27:01;;;;;;;4.75;2.20;;;-0.60;99.90;;;;;;5068499;28;20187;-70
2022/03/01 02:29:28;;;;;;;8.55;3.03;;;-0.80;99.90;;;;;;5068329;28;20161;-70
2022/03/01 02:31:58;;;;;;;2.65;2.03;;;-0.80;99.90;;;;;;5068563;28;20157;-70
2022/03/01 02:34:24;;;;;;;8.73;2.45;;;-0.80;99.90;;;;;;5066770;28;20175;-69
2022/03/01 02:36:50;;;;;;;4.97;1.98;;;-0.90;99.90;;;;;;5068539;28;20161;-70
2022/03/01 02:39:17;;;;;;;2.95;2.20;;;-1.00;99.90;;;;;;5067088;28;20161;-70
2022/03/01 02:41:45;;;;;;;2.90;1.65;;;-1.00;99.90;;;;;;5068203;28;20161;-70
2022/03/01 02:44:12;;;;;;;2.50;1.65;;;-0.90;99.90;;;;;;5074110;28;20183;-70
2022/03/01 02:46:39;;;;;;;7.95;1.80;;;-0.90;99.90;;;;;;5070220;28;20216;-70
2022/03/01 02:49:07;;;;;;;5.78;2.50;;;-0.90;99.90;;;;;;5068496;28;20157;-70
2022/03/01 02:51:34;;;;;;;4.28;1.45;;;-0.90;99.90;;;;;;5075759;28;20180;-70
2022/03/01 02:54:00;;;;;;;3.83;1.92;;;-0.80;99.90;;;;;;5091779;28;20159;-70
2022/03/01 02:56:26;;;;;;;5.53;2.00;;;-0.90;99.90;;;;;;5090712;28;20195;-71
2022/03/01 02:58:55;;;;;;;2.97;1.90;;;-1.00;99.90;;;;;;5092127;28;20162;-70
2022/03/01 03:01:22;;;;;;;1.95;1.50;;;-1.00;99.90;;;;;;5078111;28;20180;-70
2022/03/01 03:03:49;;;;;;;4.00;2.00;;;-0.90;99.90;;;;;;5071684;28;20239;-70
2022/03/01 03:06:19;;;;;;;3.88;2.17;;;-0.90;99.90;;;;;;5071745;28;20705;-70
2022/03/01 03:08:44;;;;;;;2.20;1.95;;;-1.10;99.90;;;;;;5071801;28;20153;-70
2022/03/01 03:11:10;;;;;;;3.05;1.60;;;-1.10;99.90;;;;;;5071820;28;20159;-70
2022/03/01 03:13:37;;;;;;;3.75;1.77;;;-1.20;99.90;;;;;;5071796;28;20157;-70
2022/03/01 03:16:04;;;;;;;2.40;1.75;;;-1.10;99.90;;;;;;5078780;28;20212;-70
2022/03/01 03:18:31;;;;;;;1.77;1.55;;;-1.10;99.90;;;;;;5071626;28;20177;-70
2022/03/01 03:20:57;;;;;;;2.25;1.38;;;-1.10;99.90;;;;;;5070185;28;20207;-70
2022/03/01 03:23:23;;;;;;;2.42;1.80;;;-1.30;99.90;;;;;;5070189;28;20185;-70
2022/03/01 03:25:49;;;;;;;4.45;2.00;;;-1.50;99.90;;;;;;5069868;28;20272;-70
2022/03/01 03:28:15;;;;;;;7.03;1.80;;;-1.40;99.90;;;;;;5070626;28;20184;-70
2022/03/01 03:30:41;;;;;;;2.55;1.75;;;-1.20;99.90;;;;;;5070165;28;20240;-70
2022/03/01 03:33:07;;;;;;;3.88;2.30;;;-1.30;99.90;;;;;;5068153;28;20168;-70
2022/03/01 03:35:33;;;;;;;3.53;1.65;;;-1.40;99.90;;;;;;5070190;28;20153;-70
2022/03/01 03:38:00;;;;;;;3.45;2.17;;;-1.20;99.90;;;;;;5069321;28;20199;-70
2022/03/01 03:40:25;;;;;;;5.60;2.28;;;-1.20;99.90;;;;;;5070643;28;20801;-70
2022/03/01 03:42:51;;;;;;;6.68;2.17;;;-1.30;99.90;;;;;;5070849;28;20176;-70
2022/03/01 03:45:17;;;;;;;3.88;2.00;;;-1.20;99.90;;;;;;5080613;28;20190;-70
2022/03/01 03:47:43;;;;;;;3.78;2.20;;;-1.00;99.90;;;;;;5091015;28;20244;-70
2022/03/01 03:50:10;;;;;;;2.22;1.77;;;-0.90;99.90;;;;;;5089720;28;20643;-70
2022/03/01 03:52:40;;;;;;;2.97;1.63;;;-1.00;99.90;;;;;;5089615;28;20198;-70
2022/03/01 03:55:07;;;;;;;2.72;1.67;;;-0.90;99.90;;;;;;5090687;28;20163;-70
2022/03/01 03:57:34;;;;;;;3.30;2.13;;;-1.00;99.90;;;;;;5089560;28;20230;-70
2022/03/01 04:00:02;;;;;;;5.93;2.08;;;-1.20;99.90;;;;;;5090854;28;20156;-70
2022/03/01 04:02:28;;;;;;;5.75;2.47;;;-1.30;99.90;;;;;;5089434;28;20231;-71
2022/03/01 04:04:54;;;;;;;7.00;2.08;;;-1.20;99.90;;;;;;5089646;28;20648;-70
2022/03/01 04:07:20;;;;;;;4.40;1.85;;;-1.10;99.90;;;;;;5090352;28;20676;-70
2022/03/01 04:09:47;;;;;;;2.45;1.65;;;-0.90;99.90;;;;;;5090525;28;20175;-70
2022/03/01 04:12:13;;;;;;;8.10;2.92;;;-0.90;99.90;;;;;;5090494;28;20164;-70
2022/03/01 04:14:39;;;;;;;4.97;1.90;;;-0.90;99.90;;;;;;5089182;28;20164;-70
2022/03/01 04:17:05;;;;;;;3.95;1.85;;;-1.00;99.90;;;;;;5090210;28;20156;-70
2022/03/01 04:19:31;;;;;;;3.38;1.88;;;-1.10;99.90;;;;;;5090406;28;20164;-70
2022/03/01 04:21:57;;;;;;;7.57;2.25;;;-1.30;99.90;;;;;;5090394;28;20156;-70
2022/03/01 04:24:22;;;;;;;5.28;2.17;;;-1.30;99.90;;;;;;5090255;28;20160;-70
2022/03/01 04:26:48;;;;;;;4.13;2.33;;;-1.60;99.90;;;;;;5090305;28;20247;-70
2022/03/01 04:29:14;;;;;;;5.18;2.50;;;-1.50;99.90;;;;;;5090049;28;20204;-70
2022/03/01 04:31:40;;;;;;;4.40;1.73;;;-1.50;99.90;;;;;;5090073;28;20159;-70
2022/03/01 04:34:06;;;;;;;4.57;1.90;;;-1.40;99.90;;;;;;5090090;28;20186;-70
2022/03/01 04:36:32;;;;;;;5.28;2.03;;;-1.20;99.90;;;;;;5090044;28;20168;-71
2022/03/01 04:38:58;;;;;;;3.38;2.25;;;-1.20;99.90;;;;;;5088483;28;20200;-71
2022/03/01 04:41:24;;;;;;;3.17;2.13;;;-1.30;99.90;;;;;;5088242;28;20174;-72
2022/03/01 04:43:50;;;;;;;2.97;1.80;;;-1.40;99.90;;;;;;5088383;28;20176;-71
2022/03/01 04:46:18;;;;;;;5.90;3.35;;;-1.50;99.90;;;;;;5089696;28;20218;-71
2022/03/01 04:48:47;;;;;;;7.80;2.58;;;-1.20;99.90;;;;;;5089594;28;20192;-72
2022/03/01 04:51:13;;;;;;;5.22;2.08;;;-1.10;99.90;;;;;;5089586;28;20164;-69
2022/03/01 04:53:39;;;;;;;8.20;2.05;;;-0.90;99.90;;;;;;5089609;28;20162;-71
2022/03/01 04:56:05;;;;;;;9.13;2.25;;;-1.00;99.90;;;;;;5089509;28;20164;-71
2022/03/01 04:58:31;;;;;;;4.93;2.20;;;-1.10;99.90;;;;;;5089550;28;20188;-70
2022/03/01 05:00:58;;;;;;;4.63;2.13;;;-1.10;99.90;;;;;;5088258;28;20179;-70
2022/03/01 05:03:24;;;;;;;5.70;2.65;;;-1.20;99.90;;;;;;5089273;28;20223;-71
2022/03/01 05:05:50;;;;;;;6.20;2.72;;;-1.40;99.90;;;;;;5089594;28;20184;-70
2022/03/01 05:08:16;;;;;;;4.05;2.33;;;-1.50;99.90;;;;;;5089350;28;20202;-70
2022/03/01 05:10:42;;;;;;;7.22;3.22;;;-1.70;99.90;;;;;;5089366;28;20160;-70
2022/03/01 05:13:08;;;;;;;10.48;2.35;;;-1.90;99.90;;;;;;5089432;28;20161;-70
2022/03/01 05:15:33;;;;;;;7.75;2.35;;;-2.10;99.90;;;;;;5089444;28;20160;-70
2022/03/01 05:18:00;;;;;;;7.80;2.85;;;-2.30;99.90;;;;;;5089032;28;20249;-70
2022/03/01 05:20:26;;;;;;;10.40;3.25;;;-2.40;99.90;;;;;;5089049;28;20196;-70
2022/03/01 05:22:53;;;;;;;7.68;2.65;;;-2.50;99.90;;;;;;5089049;28;20160;-70
2022/03/01 05:25:22;;;;;;;5.82;3.30;;;-2.50;99.90;;;;;;5089102;28;20156;-70
2022/03/01 05:27:50;;;;;;;5.78;2.63;;;-2.60;99.90;;;;;;5088989;28;20237;-70
2022/03/01 05:30:17;;;;;;;5.05;2.85;;;-2.70;99.90;;;;;;5089163;28;20148;-70
2022/03/01 05:32:50;;;;;;;7.50;3.30;;;-2.80;99.90;;;;;;5089064;28;20156;-70
2022/03/01 05:35:19;;;;;;;18.42;3.20;;;-2.90;99.90;;;;;;5088967;28;20148;-71
2022/03/01 05:37:52;;;;;;;6.30;2.55;;;-3.00;99.90;;;;;;5088973;28;20195;-70
2022/03/01 05:40:19;;;;;;;7.28;3.42;;;-3.00;99.90;;;;;;5088936;28;20161;-71
2022/03/01 05:42:45;;;;;;;17.58;3.17;;;-3.10;99.90;;;;;;5089116;28;20160;-70
2022/03/01 05:45:12;;;;;;;6.07;3.45;;;-3.10;99.90;;;;;;5088952;28;20160;-70
2022/03/01 05:47:40;;;;;;;8.82;3.95;;;-3.10;99.90;;;;;;5069404;28;20231;-70
2022/03/01 05:50:09;;;;;;;10.73;3.60;;;-3.10;99.90;;;;;;5068653;28;20155;-70
2022/03/01 05:52:37;;;;;;;12.13;4.20;;;-3.00;99.90;;;;;;5068540;28;20218;-70
2022/03/01 05:55:06;;;;;;;14.00;3.60;;;-3.00;99.90;;;;;;5067291;28;20179;-70
2022/03/01 05:57:33;;;;;;;9.77;3.28;;;-2.90;99.90;;;;;;5068717;28;20202;-70
2022/03/01 05:59:59;;;;;;;6.40;2.80;;;-2.90;99.90;;;;;;5068547;28;20160;-70
2022/03/01 06:02:24;;;;;;;5.88;2.75;;;-2.80;99.90;;;;;;5068224;28;20328;-69
2022/03/01 06:04:52;;;;;;;5.32;2.80;;;-2.90;99.90;;;;;;5068452;28;20169;-70
2022/03/01 06:07:19;;;;;;;6.05;2.75;;;-2.80;99.90;;;;;;5068342;28;20204;-70
2022/03/01 06:09:45;;;;;;;6.10;2.67;;;-2.70;99.90;;;;;;5068307;28;20171;-70
2022/03/01 06:12:10;;;;;;;5.72;2.65;;;-2.70;99.90;;;;;;5067899;28;20153;-70
2022/03/01 06:14:36;;;;;;;9.45;2.97;;;-2.70;99.90;;;;;;5068270;28;20176;-71
2022/03/01 06:17:03;;;;;;;6.25;3.33;;;-2.80;99.90;;;;;;5066861;28;20204;-71
2022/03/01 06:19:29;;;;;;;8.77;3.38;;;-2.80;99.90;;;;;;5067092;28;20252;-71
2022/03/01 06:21:56;;;;;;;16.70;3.92;;;-2.70;99.90;;;;;;5068464;28;20603;-71
2022/03/01 06:24:23;;;;;;;7.60;3.28;;;-2.50;99.90;;;;;;5068063;28;20210;-71
2022/03/01 06:26:49;;;;;;;7.50;3.25;;;-2.30;99.90;;;;;;5082922;28;20214;-71
2022/03/01 06:29:15;;;;;;;6.93;3.25;;;-2.20;99.90;;;;;;5083419;28;20550;-70
2022/03/01 06:31:41;;;;;;;7.25;4.07;;;-2.00;99.90;;;;;;5088237;28;20258;-70
2022/03/01 06:34:07;;;;;;;5.90;3.47;;;-1.80;99.90;;;;;;5097053;28;20222;-70
2022/03/01 06:36:33;;;;;;;5.13;2.90;;;-1.70;99.90;;;;;;5102418;28;20191;-71
2022/03/01 06:38:59;;;;;;;7.07;4.22;;;-1.70;99.90;;;;;;5102111;28;20186;-71
2022/03/01 06:41:25;;;;;;;5.55;3.95;;;-1.60;99.90;;;;;;5096451;28;20171;-71
2022/03/01 06:43:51;;;;;;;5.35;3.63;;;-1.50;99.90;;;;;;5110735;28;20167;-71
2022/03/01 06:46:17;;;;;;;4.90;3.30;;;-1.40;99.90;;;;;;5111693;28;20292;-71
2022/03/01 06:48:43;;;;;;;5.47;3.33;;;-1.10;99.90;;;;;;5102617;28;20187;-70
2022/03/01 06:51:09;;;;;;;9.32;3.85;;;-0.70;99.90;;;;;;5099725;28;20167;-70
2022/03/01 06:53:36;;;;;;;5.82;3.20;;;-0.50;99.90;;;;;;5084799;28;20547;-71
2022/03/01 06:56:03;;;;;;;8.07;3.10;;;-0.50;99.90;;;;;;5084087;28;20202;-71
2022/03/01 06:58:29;;;;;;;7.68;3.30;;;-0.50;99.90;;;;;;5102376;28;20240;-72
2022/03/01 07:00:56;;;;;;;9.55;3.58;;;-0.40;99.90;;;;;;5104304;28;20236;-72
2022/03/01 07:03:23;;;;;;;10.10;3.78;;;-0.40;99.90;;;;;;5094781;28;20223;-72
2022/03/01 07:05:49;;;;;;;11.00;3.55;;;-0.40;99.90;;;;;;5107522;28;20199;-72
2022/03/01 07:08:15;;;;;;;6.03;3.45;;;-0.40;99.90;;;;;;5098864;28;20231;-72
2022/03/01 07:10:42;;;;;;;10.52;4.03;;;-0.40;99.90;;;;;;5100494;28;20172;-72
2022/03/01 07:13:08;;;;;;;10.63;3.20;;;-0.30;99.90;;;;;;5104877;28;20164;-72
2022/03/01 07:15:37;;;;;;;8.73;3.88;;;-0.20;99.90;;;;;;5089689;28;20256;-72
2022/03/01 07:18:04;;;;;;;11.75;3.85;;;-0.10;99.90;;;;;;5079933;28;20161;-71
2022/03/01 07:20:31;;;;;;;7.82;3.72;;;0.10;99.90;;;;;;5083838;28;20163;-71
2022/03/01 07:22:56;;;;;;;9.25;3.83;;;0.30;99.90;;;;;;5080957;28;20195;-72
2022/03/01 07:25:23;;;;;;;10.02;3.00;;;0.30;99.90;;;;;;5080699;28;20232;-71
2022/03/01 07:27:52;;;;;;;8.23;3.63;;;0.40;99.90;;;;;;5080079;28;20200;-71
2022/03/01 07:30:19;;;;;;;7.32;3.35;;;0.60;99.90;;;;;;5081585;28;20164;-71
2022/03/01 07:32:47;;;;;;;4.75;3.35;;;0.70;99.90;;;;;;5084212;28;20239;-72
2022/03/01 07:35:13;;;;;;;9.95;2.90;;;0.80;99.90;;;;;;5091257;28;20160;-71
2022/03/01 07:37:39;;;;;;;6.22;3.15;;;1.00;99.90;;;;;;5089817;28;20196;-71
2022/03/01 07:40:08;;;;;;;5.60;3.97;;;1.00;99.90;;;;;;5089823;28;20164;-71
2022/03/01 07:42:34;;;;;;;7.70;2.90;;;1.00;99.90;;;;;;5081488;28;20198;-71
2022/03/01 07:45:00;;;;;;;6.25;2.85;;;1.60;99.90;;;;;;5071016;28;20188;-70
2022/03/01 07:47:26;;;;;;;9.32;2.10;;;1.90;99.40;;;;;;5070549;28;20211;-70
2022/03/01 07:49:52;;;;;;;7.20;3.00;;;1.90;99.20;;;;;;5095727;28;20194;-70
2022/03/01 07:52:18;;;;;;;2.95;2.00;;;2.00;98.80;;;;;;5096378;28;20181;-69
2022/03/01 07:54:44;;;;;;;5.82;2.67;;;2.10;98.80;;;;;;5106419;28;20193;-70
2022/03/01 07:57:09;;;;;;;5.45;3.30;;;1.90;98.50;;;;;;5094872;28;20190;-69
2022/03/01 07:59:35;;;;;;;4.05;2.35;;;1.80;98.80;;;;;;5091474;28;20211;-71
2022/03/01 08:02:01;;;;;;;5.38;2.60;;;2.10;98.60;;;;;;5102014;28;20167;-72
2022/03/01 08:04:27;;;;;;;3.85;2.65;;;3.10;97.90;;;;;;5093332;28;20319;-71
2022/03/01 08:06:53;;;;;;;5.75;2.92;;;6.10;94.40;;;;;;5105434;28;20206;-72
2022/03/01 08:09:19;;;;;;;6.97;2.67;;;8.60;91.40;;;;;;5096137;28;20239;-71
2022/03/01 08:11:45;;;;;;;7.68;2.80;;;9.50;90.80;;;;;;5100919;28;20170;-71
2022/03/01 08:14:11;;;;;;;9.05;3.70;;;12.00;87.60;;;;;;5102659;28;20705;-72
2022/03/01 08:16:36;;;;;;;10.63;3.00;;;12.40;82.60;;;;;;5091816;28;20262;-72
2022/03/01 08:19:02;;;;;;;7.25;3.33;;;13.20;82.80;;;;;;5106545;28;20198;-72
2022/03/01 08:21:28;;;;;;;7.28;4.00;;;14.30;81.80;;;;;;5097122;28;20171;-72
2022/03/01 08:23:54;;;;;;;8.32;3.20;;;15.30;78.60;;;;;;5099046;28;20206;-71
2022/03/01 08:26:20;;;;;;;7.43;3.63;;;16.60;74.70;;;;;;5103813;28;20217;-72
2022/03/01 08:28:46;;;;;;;5.32;3.17;;;16.80;74.00;;;;;;5093233;28;20269;-72
2022/03/01 08:31:13;;;;;;;7.50;3.35;;;16.90;73.10;;;;;;5105216;28;20530;-72
2022/03/01 08:33:39;;;;;;;7.20;3.45;;;17.30;73.00;;;;;;5096310;28;20202;-73
2022/03/01 08:36:08;;;;;;;4.45;2.80;;;17.10;72.00;;;;;;5094703;28;20199;-73
2022/03/01 08:38:34;;;;;;;6.15;3.25;;;16.80;72.40;;;;;;5084616;28;20167;-73
2022/03/01 08:40:59;;;;;;;6.68;3.35;;;16.00;72.30;;;;;;5101493;28;20164;-72
2022/03/01 08:43:25;;;;;;;6.25;2.58;;;14.80;75.30;;;;;;5098578;28;20163;-71
2022/03/01 08:45:52;;;;;;;4.07;2.63;;;14.30;75.80;;;;;;5094950;28;20227;-71
2022/03/01 08:48:18;;;;;;;3.53;2.20;;;15.40;76.30;;;;;;5106010;28;20700;-71
2022/03/01 08:50:44;;;;;;;4.47;2.30;;;17.00;72.50;;;;;;5094292;28;20167;-71
2022/03/01 08:53:10;;;;;;;4.78;2.47;;;16.80;73.30;;;;;;5100579;28;20211;-71
2022/03/01 08:55:36;;;;;;;5.57;2.75;;;16.70;73.40;;;;;;5101484;28;20195;-71
2022/03/01 08:58:02;;;;;;;5.38;2.90;;;16.20;72.70;;;;;;5083576;28;20203;-71
2022/03/01 09:00:28;;;;;;;4.40;2.97;;;16.30;73.70;;;;;;5092578;28;20191;-70
2022/03/01 09:02:54;;;;;;;9.98;2.70;;;17.10;73.00;;;;;;5092046;28;20241;-71
2022/03/01 09:05:20;;;;;;;5.90;2.70;;;18.20;72.50;;;;;;5093797;28;20566;-71
2022/03/01 09:07:46;;;;;;;3.95;2.60;;;16.70;72.60;;;;;;5101107;28;20167;-72
2022/03/01 09:10:12;;;;;;;3.20;2.45;;;17.10;72.60;;;;;;5089834;28;20183;-70
2022/03/01 09:12:38;;;;;;;5.30;2.88;;;16.50;75.20;;;;;;5104625;28;20164;-70
2022/03/01 09:15:05;;;;;;;3.17;2.58;;;17.00;73.30;;;;;;5096659;28;20166;-70
2022/03/01 09:17:31;;;;;;;4.47;2.75;;;17.70;74.30;;;;;;5097276;28;20160;-70
2022/03/01 09:19:57;;;;;;;3.85;2.58;;;17.10;72.00;;;;;;5102933;28;20616;-71
2022/03/01 09:22:23;;;;;;;3.38;2.53;;;16.90;71.20;;;;;;5088700;28;20176;-71
2022/03/01 09:24:49;;;;;;;5.38;2.83;;;16.90;71.40;;;;;;5093415;28;20178;-72
2022/03/01 09:27:15;;;;;;;3.80;2.67;;;16.40;72.40;;;;;;5098095;28;20195;-71
2022/03/01 09:29:41;;;;;;;3.92;2.53;;;15.50;74.50;;;;;;5100646;28;20198;-72
2022/03/01 09:32:07;;;;;;;5.20;2.58;;;15.80;73.40;;;;;;5092316;28;20164;-72
2022/03/01 09:34:33;;;;;;;3.00;2.25;;;15.60;75.10;;;;;;5103806;28;20244;-72
2022/03/01 09:36:59;;;;;;;3.17;2.05;;;16.30;72.60;;;;;;5095926;28;20164;-71
2022/03/01 09:39:25;;;;;;;5.43;2.78;;;16.80;74.00;;;;;;5097607;28;20199;-71
2022/03/01 09:41:51;;;;;;;3.13;2.25;;;17.20;68.70;;;;;;5103158;28;20167;-72
2022/03/01 09:44:18;;;;;;;3.90;2.45;;;15.40;73.10;;;;;;5091799;28;20229;-71
2022/03/01 09:46:45;;;;;;;3.13;2.47;;;16.30;70.90;;;;;;5103747;28;20187;-72
2022/03/01 09:49:11;;;;;;;3.92;2.78;;;16.10;72.40;;;;;;5096974;28;20167;-72
2022/03/01 09:51:41;;;;;;;2.85;2.20;;;16.10;72.40;;;;;;5096491;28;20280;-71
2022/03/01 09:54:21;;;;;;;3.55;2.67;;;15.60;77.10;;;;;;5104771;28;20172;-71
2022/03/01 09:56:47;;;;;;;4.82;2.22;;;16.70;73.60;;;;;;5086085;28;20182;-72
2022/03/01 09:59:12;;;;;;;4.13;2.40;;;17.20;70.90;;;;;;5103638;28;20187;-71
2022/03/01 10:01:50;;;;;;;4.55;2.47;;;16.80;68.50;;;;;;5090169;28;20235;-71
2022/03/01 10:04:16;;;;;;;5.07;2.28;;;16.40;70.70;;;;;;5095036;28;20226;-72
2022/03/01 10:06:44;;;;;;;5.35;2.60;;;15.20;71.30;;;;;;5105187;28;20205;-72
2022/03/01 10:09:16;;;;;;;4.20;2.80;;;14.60;72.50;;;;;;5104008;28;20190;-71
2022/03/01 10:11:44;;;;;;;4.57;2.63;;;14.50;74.30;;;;;;5095877;28;20168;-70
2022/03/01 10:14:11;;;;;;;3.33;2.20;;;15.20;72.80;;;;;;5097429;28;20201;-72
2022/03/01 10:16:46;;;;;;;5.25;2.90;;;15.60;73.40;;;;;;5102014;28;20185;-71
2022/03/01 10:19:20;;;;;;;3.22;2.42;;;15.50;72.40;;;;;;5107484;28;20171;-72
2022/03/01 10:21:48;;;;;;;14.52;3.80;;;15.50;71.10;;;;;;5079224;28;20223;-71
2022/03/01 10:24:15;;;;;;;3.13;2.33;;;14.60;71.60;;;;;;5104282;28;20223;-71
2022/03/01 10:26:43;;;;;;;4.03;2.90;;;14.70;75.40;;;;;;5103558;28;20187;-71
2022/03/01 10:29:09;;;;;;;5.28;2.97;;;15.00;73.10;;;;;;5096978;28;20218;-71
2022/03/01 10:31:35;;;;;;;7.35;3.15;;;15.60;72.00;;;;;;5108659;28;20171;-70
2022/03/01 10:34:03;;;;;;;5.07;2.13;;;15.50;71.60;;;;;;5097035;28;20183;-71
2022/03/01 10:36:31;;;;;;;12.60;2.92;;;15.40;71.30;;;;;;5102749;28;20171;-72
2022/03/01 10:38:58;;;;;;;4.47;2.10;;;15.40;73.30;;;;;;5105576;28;20178;-71
2022/03/01 10:41:30;;;;;;;3.53;2.20;;;15.40;70.30;;;;;;5093539;28;20172;-70
2022/03/01 10:43:58;;;;;;;3.10;2.15;;;15.00;72.80;;;;;;5111283;28;20155;-70
2022/03/01 10:46:26;;;;;;;2.67;2.40;;;15.50;74.00;;;;;;5110599;28;20764;-70
2022/03/01 10:49:02;;;;;;;3.20;2.50;;;15.30;72.70;;;;;;5111213;28;20148;-70
2022/03/01 10:51:28;;;;;;;4.00;2.67;;;14.30;71.60;;;;;;5112310;28;20183;-71
2022/03/01 10:53:59;;;;;;;7.63;4.13;;;13.90;74.40;;;;;;5112136;28;20151;-70
2022/03/01 10:56:34;;;;;;;6.82;2.95;;;14.30;73.60;;;;;;5112326;28;20160;-71
2022/03/01 10:59:03;;;;;;;4.28;2.67;;;12.70;74.00;;;;;;5095226;28;20203;-71
2022/03/01 11:01:28;;;;;;;5.07;2.95;;;11.50;77.50;;;;;;5071552;28;20496;-71
2022/03/01 11:03:54;;;;;;;6.07;3.33;;;11.90;78.00;;;;;;5071376;28;20215;-71
2022/03/01 11:06:21;;;;;;;6.85;3.13;;;12.60;77.90;;;;;;5085861;28;20203;-69
2022/03/01 11:08:47;;;;;;;5.00;2.65;;;13.00;75.70;;;;;;5090218;28;20279;-70
2022/03/01 11:11:15;;;;;;;3.88;2.45;;;13.60;75.00;;;;;;5090395;28;20164;-70
2022/03/01 11:13:44;;;;;;;4.07;2.50;;;14.00;74.70;;;;;;5089902;28;20251;-71
2022/03/01 11:16:32;;;;;;;8.40;2.75;;;13.80;71.70;;;;;;5090144;28;20192;-69
2022/03/01 11:19:10;;;;;;;3.00;2.20;;;12.60;73.40;;;;;;5090119;28;20191;-70
2022/03/01 11:21:40;;;;;;;3.38;2.25;;;12.10;76.80;;;;;;5091319;28;20164;-69
2022/03/01 11:24:06;;;;;;;4.00;2.35;;;12.90;76.90;;;;;;5090059;28;20200;-70
2022/03/01 11:26:38;;;;;;;5.13;2.10;;;12.10;77.30;;;;;;5091248;28;20200;-70
2022/03/01 11:29:12;;;;;;;6.05;2.42;;;12.70;75.90;;;;;;5089884;28;20192;-70
2022/03/01 11:31:39;;;;;;;4.47;2.20;;;13.30;74.00;;;;;;5091242;28;20179;-70
2022/03/01 11:34:11;;;;;;;5.45;2.28;;;13.20;73.80;;;;;;5088068;28;20184;-69
2022/03/01 11:36:37;;;;;;;3.15;2.15;;;12.90;74.60;;;;;;5096886;28;20236;-69
2022/03/01 11:39:10;;;;;;;4.53;2.60;;;13.60;75.80;;;;;;5089270;28;20200;-70
2022/03/01 11:41:49;;;;;;;3.78;2.78;;;13.50;74.20;;;;;;5086838;28;20230;-69
2022/03/01 11:44:24;;;;;;;5.72;2.70;;;13.90;73.60;;;;;;5094367;28;20198;-70
2022/03/01 11:46:52;;;;;;;3.63;2.42;;;12.90;74.10;;;;;;5090539;28;20294;-70
2022/03/01 11:49:20;;;;;;;3.20;2.20;;;12.30;76.30;;;;;;5104998;28;20264;-69
2022/03/01 11:51:54;;;;;;;6.13;2.42;;;12.90;76.50;;;;;;5090335;28;20160;-70
2022/03/01 11:54:27;;;;;;;6.32;2.85;;;13.40;75.20;;;;;;5105565;28;20198;-71
2022/03/01 11:56:56;;;;;;;5.40;2.90;;;13.50;75.10;;;;;;5097118;28;20253;-70
2022/03/01 11:59:23;;;;;;;5.35;2.70;;;13.70;75.40;;;;;;5086014;28;20302;-70
2022/03/01 12:01:53;;;;;;;9.40;2.60;;;13.80;73.70;;;;;;5105184;28;20183;-70
2022/03/01 12:04:27;;;;;;;5.40;2.58;;;13.50;72.80;;;;;;5089059;28;20693;-70
2022/03/01 12:06:57;;;;;;;4.18;2.83;;;13.40;75.80;;;;;;5070520;28;20199;-69
2022/03/01 12:09:26;;;;;;;3.65;1.92;;;13.20;74.30;;;;;;5068976;28;20161;-65
2022/03/01 12:12:04;;;;;;;3.65;2.50;;;13.80;74.20;;;;;;5069932;28;20156;-66
2022/03/01 12:14:30;;;;;;;4.22;2.20;;;13.80;75.20;;;;;;5070318;28;20339;-65
2022/03/01 12:16:56;;;;;;;5.05;3.20;;;14.50;72.50;;;;;;5070212;28;20157;-65
2022/03/01 12:19:23;;;;;;;4.30;2.20;;;14.80;73.30;;;;;;5070352;28;20183;-67
2022/03/01 12:21:53;;;;;;;4.43;2.58;;;15.50;73.60;;;;;;5069206;28;20184;-67
2022/03/01 12:24:22;;;;;;;3.05;2.40;;;15.00;71.80;;;;;;5077209;28;20201;-67
2022/03/01 12:26:56;;;;;;;5.28;2.60;;;13.80;73.50;;;;;;5069247;28;20207;-67
2022/03/01 12:29:24;;;;;;;6.90;2.08;;;12.40;75.50;;;;;;5080006;28;20202;-67
2022/03/01 12:31:56;;;;;;;8.32;2.72;;;12.40;76.00;;;;;;5089404;28;20161;-67
2022/03/01 12:34:27;;;;;;;3.17;2.42;;;12.70;76.10;;;;;;5089943;28;20192;-66
2022/03/01 12:36:55;;;;;;;5.20;1.92;;;12.40;75.10;;;;;;5086591;28;20180;-67
2022/03/01 12:39:22;;;;;;;4.03;2.53;;;11.90;77.00;;;;;;5069802;28;20168;-67
2022/03/01 12:41:49;;;;;;;5.47;2.63;;;10.40;79.70;;;;;;5067644;28;20201;-67
2022/03/01 12:44:18;;;;;;;5.40;2.40;;;9.50;80.30;;;;;;5069710;28;20172;-67
2022/03/01 12:46:44;;;;;;;3.60;3.15;;;8.80;82.40;;;;;;5069604;28;20188;-67
2022/03/01 12:49:12;;;;;;;3.40;2.28;;;8.70;85.00;;;;;;5069426;28;20596;-67